sensor_id;sensor_type;location;lat;lon;timestamp;pressure;altitude;pressure_sealevel;temperature;humidity
11856;BME280;5987;53.140;8.904;2023-02-15T00:01:27;103025.28;;;0.81;100.00
11856;BME280;5987;53.140;8.904;2023-02-15T00:04:31;103016.81;;;0.85;100.00
11856;BME280;5987;53.140;8.904;2023-02-15T00:07:49;103022.63;;;0.80;100.00
11856;BME280;5987;53.140;8.904;2023-02-15T00:10:53;103018.16;;;0.76;100.00
11856;BME280;5987;53.140;8.904;2023-02-15T00:13:56;103020.69;;;0.74;100.00
11856;BME280;5987;53.140;8.904;2023-02-15T00:17:02;103016.22;;;0.70;100.00
11856;BME280;5987;53.140;8.904;2023-02-15T00:20:08;103015.19;;;0.65;100.00
11856;BME280;5987;53.140;8.904;2023-02-15T00:23:12;103015.88;;;0.61;100.00
11856;BME280;5987;53.140;8.904;2023-02-15T00:26:16;103017.50;;;0.59;100.00
11856;BME280;5987;53.140;8.904;2023-02-15T00:29:20;103018.41;;;0.59;100.00
11856;BME280;5987;53.140;8.904;2023-02-15T00:32:26;103013.88;;;0.54;100.00
11856;BME280;5987;53.140;8.904;2023-02-15T00:35:30;103017.47;;;0.36;100.00
11856;BME280;5987;53.140;8.904;2023-02-15T00:38:34;103015.69;;;0.35;100.00
11856;BME280;5987;53.140;8.904;2023-02-15T00:41:39;103012.16;;;0.33;100.00
11856;BME280;5987;53.140;8.904;2023-02-15T00:44:43;103005.91;;;0.28;100.00
11856;BME280;5987;53.140;8.904;2023-02-15T00:47:48;102999.19;;;0.31;100.00
11856;BME280;5987;53.140;8.904;2023-02-15T00:50:55;102992.94;;;0.26;100.00
11856;BME280;5987;53.140;8.904;2023-02-15T00:53:59;102982.63;;;0.26;100.00
11856;BME280;5987;53.140;8.904;2023-02-15T00:57:03;102986.47;;;0.15;100.00
11856;BME280;5987;53.140;8.904;2023-02-15T01:00:08;102984.06;;;0.20;100.00
11856;BME280;5987;53.140;8.904;2023-02-15T01:03:16;102979.97;;;0.25;100.00
11856;BME280;5987;53.140;8.904;2023-02-15T01:06:20;102983.38;;;0.24;100.00
11856;BME280;5987;53.140;8.904;2023-02-15T01:09:24;102986.78;;;0.44;100.00
11856;BME280;5987;53.140;8.904;2023-02-15T01:12:28;102977.88;;;0.37;100.00
11856;BME280;5987;53.140;8.904;2023-02-15T01:15:35;102984.13;;;0.42;100.00
11856;BME280;5987;53.140;8.904;2023-02-15T01:18:40;102979.19;;;0.48;100.00
11856;BME280;5987;53.140;8.904;2023-02-15T01:21:44;102975.53;;;0.43;100.00
11856;BME280;5987;53.140;8.904;2023-02-15T01:24:49;102975.03;;;0.31;100.00
11856;BME280;5987;53.140;8.904;2023-02-15T01:27:53;102967.16;;;0.28;100.00
11856;BME280;5987;53.140;8.904;2023-02-15T01:30:57;102972.34;;;0.28;100.00
11856;BME280;5987;53.140;8.904;2023-02-15T01:34:03;102967.84;;;0.24;100.00
11856;BME280;5987;53.140;8.904;2023-02-15T01:37:06;102967.09;;;0.26;100.00
11856;BME280;5987;53.140;8.904;2023-02-15T01:40:15;102961.38;;;0.12;100.00
11856;BME280;5987;53.140;8.904;2023-02-15T01:43:20;102959.44;;;0.07;100.00
11856;BME280;5987;53.140;8.904;2023-02-15T01:46:39;102963.59;;;0.03;100.00
11856;BME280;5987;53.140;8.904;2023-02-15T01:49:47;102958.44;;;0.03;100.00
11856;BME280;5987;53.140;8.904;2023-02-15T01:52:57;102955.84;;;0.03;100.00
11856;BME280;5987;53.140;8.904;2023-02-15T01:56:09;102957.47;;;0.01;100.00
11856;BME280;5987;53.140;8.904;2023-02-15T01:59:20;102955.84;;;0.03;100.00
11856;BME280;5987;53.140;8.904;2023-02-15T02:02:25;102951.31;;;-0.03;100.00
11856;BME280;5987;53.140;8.904;2023-02-15T02:05:33;102942.44;;;-0.09;100.00
11856;BME280;5987;53.140;8.904;2023-02-15T02:08:38;102948.81;;;-0.01;100.00
11856;BME280;5987;53.140;8.904;2023-02-15T02:11:46;102944.31;;;-0.05;100.00
11856;BME280;5987;53.140;8.904;2023-02-15T02:15:02;102942.50;;;-0.08;100.00
11856;BME280;5987;53.140;8.904;2023-02-15T02:18:44;102941.47;;;-0.11;100.00
11856;BME280;5987;53.140;8.904;2023-02-15T02:34:05;102930.06;;;-0.38;100.00
11856;BME280;5987;53.140;8.904;2023-02-15T02:37:29;102919.41;;;-0.45;100.00
11856;BME280;5987;53.140;8.904;2023-02-15T02:40:52;102915.59;;;-0.34;100.00
11856;BME280;5987;53.140;8.904;2023-02-15T02:44:21;102917.19;;;-0.57;100.00
11856;BME280;5987;53.140;8.904;2023-02-15T02:47:46;102918.34;;;-0.50;100.00
11856;BME280;5987;53.140;8.904;2023-02-15T02:51:09;102917.44;;;-0.51;100.00
11856;BME280;5987;53.140;8.904;2023-02-15T02:54:13;102913.19;;;-0.50;100.00
11856;BME280;5987;53.140;8.904;2023-02-15T02:57:18;102904.06;;;-0.42;100.00
11856;BME280;5987;53.140;8.904;2023-02-15T03:00:38;102910.16;;;-0.61;100.00
11856;BME280;5987;53.140;8.904;2023-02-15T03:04:38;102906.47;;;-0.66;100.00
11856;BME280;5987;53.140;8.904;2023-02-15T03:08:54;102903.00;;;-0.47;100.00
11856;BME280;5987;53.140;8.904;2023-02-15T03:13:06;102912.91;;;-0.57;100.00
11856;BME280;5987;53.140;8.904;2023-02-15T03:17:15;102906.47;;;-0.66;100.00
11856;BME280;5987;53.140;8.904;2023-02-15T03:21:18;102900.78;;;-0.79;100.00
11856;BME280;5987;53.140;8.904;2023-02-15T03:25:40;102893.88;;;-0.80;100.00
11856;BME280;5987;53.140;8.904;2023-02-15T03:29:36;102889.41;;;-1.04;100.00
11856;BME280;5987;53.140;8.904;2023-02-15T03:33:52;102882.16;;;-1.12;100.00
11856;BME280;5987;53.140;8.904;2023-02-15T03:38:11;102876.75;;;-1.17;100.00
11856;BME280;5987;53.140;8.904;2023-02-15T03:42:26;102881.47;;;-1.08;100.00
11856;BME280;5987;53.140;8.904;2023-02-15T03:46:33;102892.19;;;-0.99;100.00
11856;BME280;5987;53.140;8.904;2023-02-15T03:50:35;102895.03;;;-1.12;100.00
11856;BME280;5987;53.140;8.904;2023-02-15T03:54:45;102898.84;;;-1.04;100.00
11856;BME280;5987;53.140;8.904;2023-02-15T03:58:47;102897.06;;;-1.25;100.00
11856;BME280;5987;53.140;8.904;2023-02-15T04:03:05;102898.00;;;-1.23;100.00
11856;BME280;5987;53.140;8.904;2023-02-15T04:06:52;102905.53;;;-1.27;100.00
11856;BME280;5987;53.140;8.904;2023-02-15T04:09:59;102895.81;;;-1.33;100.00
11856;BME280;5987;53.140;8.904;2023-02-15T04:13:21;102889.31;;;-1.25;100.00
11856;BME280;5987;53.140;8.904;2023-02-15T04:16:28;102880.34;;;-1.33;100.00
11856;BME280;5987;53.140;8.904;2023-02-15T04:19:32;102876.00;;;-1.34;100.00
11856;BME280;5987;53.140;8.904;2023-02-15T04:22:54;102869.91;;;-1.36;100.00
11856;BME280;5987;53.140;8.904;2023-02-15T04:26:15;102869.50;;;-1.26;100.00
11856;BME280;5987;53.140;8.904;2023-02-15T04:29:19;102869.44;;;-1.27;100.00
11856;BME280;5987;53.140;8.904;2023-02-15T04:32:25;102856.66;;;-1.44;100.00
11856;BME280;5987;53.140;8.904;2023-02-15T04:35:29;102858.41;;;-1.25;100.00
11856;BME280;5987;53.140;8.904;2023-02-15T04:38:34;102859.50;;;-1.19;100.00
11856;BME280;5987;53.140;8.904;2023-02-15T04:41:38;102862.06;;;-1.39;100.00
11856;BME280;5987;53.140;8.904;2023-02-15T04:44:42;102851.22;;;-1.32;100.00
11856;BME280;5987;53.140;8.904;2023-02-15T04:47:47;102854.03;;;-1.45;100.00
11856;BME280;5987;53.140;8.904;2023-02-15T04:50:51;102851.88;;;-1.36;100.00
11856;BME280;5987;53.140;8.904;2023-02-15T04:53:55;102853.78;;;-1.32;100.00
11856;BME280;5987;53.140;8.904;2023-02-15T04:56:59;102854.72;;;-1.30;100.00
11856;BME280;5987;53.140;8.904;2023-02-15T05:00:04;102859.19;;;-1.26;100.00
11856;BME280;5987;53.140;8.904;2023-02-15T05:03:09;102852.63;;;-1.19;100.00
11856;BME280;5987;53.140;8.904;2023-02-15T05:06:13;102850.91;;;-1.38;100.00
11856;BME280;5987;53.140;8.904;2023-02-15T05:09:17;102850.91;;;-1.38;100.00
11856;BME280;5987;53.140;8.904;2023-02-15T05:12:21;102847.28;;;-1.43;100.00
11856;BME280;5987;53.140;8.904;2023-02-15T05:15:25;102843.84;;;-1.42;100.00
11856;BME280;5987;53.140;8.904;2023-02-15T05:18:30;102843.25;;;-1.36;100.00
11856;BME280;5987;53.140;8.904;2023-02-15T05:21:34;102836.69;;;-1.30;100.00
11856;BME280;5987;53.140;8.904;2023-02-15T05:24:38;102829.06;;;-1.46;100.00
11856;BME280;5987;53.140;8.904;2023-02-15T05:28:04;102834.91;;;-1.31;100.00
11856;BME280;5987;53.140;8.904;2023-02-15T05:31:23;102830.47;;;-1.35;100.00
11856;BME280;5987;53.140;8.904;2023-02-15T05:34:29;102831.13;;;-1.39;100.00
11856;BME280;5987;53.140;8.904;2023-02-15T05:37:33;102831.34;;;-1.34;100.00
11856;BME280;5987;53.140;8.904;2023-02-15T05:40:37;102830.16;;;-1.41;100.00
11856;BME280;5987;53.140;8.904;2023-02-15T05:43:42;102824.09;;;-1.43;100.00
11856;BME280;5987;53.140;8.904;2023-02-15T05:46:46;102823.13;;;-1.45;100.00
11856;BME280;5987;53.140;8.904;2023-02-15T05:49:51;102821.94;;;-1.52;100.00
11856;BME280;5987;53.140;8.904;2023-02-15T05:52:55;102816.19;;;-1.46;100.00
11856;BME280;5987;53.140;8.904;2023-02-15T05:55:59;102816.25;;;-1.64;100.00
11856;BME280;5987;53.140;8.904;2023-02-15T05:59:04;102814.31;;;-1.50;100.00
11856;BME280;5987;53.140;8.904;2023-02-15T06:02:08;102813.75;;;-1.63;100.00
11856;BME280;5987;53.140;8.904;2023-02-15T06:05:14;102811.91;;;-1.65;100.00
11856;BME280;5987;53.140;8.904;2023-02-15T06:08:18;102805.97;;;-1.64;100.00
11856;BME280;5987;53.140;8.904;2023-02-15T06:11:22;102799.50;;;-1.74;100.00
11856;BME280;5987;53.140;8.904;2023-02-15T06:14:26;102804.84;;;-1.69;100.00
11856;BME280;5987;53.140;8.904;2023-02-15T06:17:30;102800.34;;;-1.56;100.00
11856;BME280;5987;53.140;8.904;2023-02-15T06:20:35;102802.41;;;-1.66;100.00
11856;BME280;5987;53.140;8.904;2023-02-15T06:23:39;102811.72;;;-1.70;100.00
11856;BME280;5987;53.140;8.904;2023-02-15T06:26:43;102805.66;;;-1.70;100.00
11856;BME280;5987;53.140;8.904;2023-02-15T06:29:47;102808.88;;;-1.57;100.00
11856;BME280;5987;53.140;8.904;2023-02-15T06:32:51;102805.06;;;-1.65;100.00
11856;BME280;5987;53.140;8.904;2023-02-15T06:35:56;102803.81;;;-1.73;100.00
11856;BME280;5987;53.140;8.904;2023-02-15T06:39:01;102802.88;;;-1.75;100.00
11856;BME280;5987;53.140;8.904;2023-02-15T06:42:05;102793.06;;;-1.84;100.00
11856;BME280;5987;53.140;8.904;2023-02-15T06:45:10;102797.59;;;-1.78;100.00
11856;BME280;5987;53.140;8.904;2023-02-15T06:48:14;102807.09;;;-1.77;100.00
11856;BME280;5987;53.140;8.904;2023-02-15T06:51:19;102811.28;;;-1.79;100.00
11856;BME280;5987;53.140;8.904;2023-02-15T06:54:23;102810.94;;;-1.87;100.00
11856;BME280;5987;53.140;8.904;2023-02-15T06:57:27;102804.44;;;-1.79;100.00
11856;BME280;5987;53.140;8.904;2023-02-15T07:00:35;102809.56;;;-1.79;100.00
11856;BME280;5987;53.140;8.904;2023-02-15T07:04:02;102819.09;;;-1.58;100.00
11856;BME280;5987;53.140;8.904;2023-02-15T07:07:15;102816.47;;;-1.60;100.00
11856;BME280;5987;53.140;8.904;2023-02-15T07:10:19;102803.50;;;-1.81;100.00
11856;BME280;5987;53.140;8.904;2023-02-15T07:13:23;102799.81;;;-1.86;100.00
11856;BME280;5987;53.140;8.904;2023-02-15T07:16:27;102796.63;;;-1.80;100.00
11856;BME280;5987;53.140;8.904;2023-02-15T07:19:32;102794.06;;;-1.80;100.00
11856;BME280;5987;53.140;8.904;2023-02-15T07:22:37;102794.78;;;-1.83;100.00
11856;BME280;5987;53.140;8.904;2023-02-15T07:25:41;102796.25;;;-1.70;100.00
11856;BME280;5987;53.140;8.904;2023-02-15T07:28:45;102793.69;;;-1.70;100.00
11856;BME280;5987;53.140;8.904;2023-02-15T07:31:49;102791.25;;;-1.67;100.00
11856;BME280;5987;53.140;8.904;2023-02-15T07:34:52;102785.13;;;-1.69;100.00
11856;BME280;5987;53.140;8.904;2023-02-15T07:37:58;102773.09;;;-1.70;100.00
11856;BME280;5987;53.140;8.904;2023-02-15T07:41:11;102777.94;;;-1.76;100.00
11856;BME280;5987;53.140;8.904;2023-02-15T07:44:17;102774.56;;;-1.75;100.00
11856;BME280;5987;53.140;8.904;2023-02-15T07:47:21;102773.31;;;-1.83;100.00
11856;BME280;5987;53.140;8.904;2023-02-15T07:50:25;102768.53;;;-1.76;100.00
11856;BME280;5987;53.140;8.904;2023-02-15T07:53:31;102762.56;;;-1.75;100.00
11856;BME280;5987;53.140;8.904;2023-02-15T07:56:40;102771.25;;;-1.53;100.00
11856;BME280;5987;53.140;8.904;2023-02-15T07:59:52;102761.63;;;-1.57;100.00
11856;BME280;5987;53.140;8.904;2023-02-15T08:03:03;102752.50;;;-1.50;100.00
11856;BME280;5987;53.140;8.904;2023-02-15T08:06:23;102751.41;;;-1.56;100.00
11856;BME280;5987;53.140;8.904;2023-02-15T08:09:30;102748.75;;;-1.57;100.00
11856;BME280;5987;53.140;8.904;2023-02-15T08:12:34;102753.84;;;-1.59;100.00
11856;BME280;5987;53.140;8.904;2023-02-15T08:15:38;102749.09;;;-1.49;100.00
11856;BME280;5987;53.140;8.904;2023-02-15T08:18:41;102753.00;;;-1.38;100.00
11856;BME280;5987;53.140;8.904;2023-02-15T08:21:48;102755.47;;;-1.41;100.00
11856;BME280;5987;53.140;8.904;2023-02-15T08:24:53;102748.41;;;-1.05;100.00
11856;BME280;5987;53.140;8.904;2023-02-15T08:27:57;102749.00;;;-1.31;100.00
11856;BME280;5987;53.140;8.904;2023-02-15T08:31:05;102748.91;;;-1.13;100.00
11856;BME280;5987;53.140;8.904;2023-02-15T08:34:13;102750.53;;;-1.15;100.00
11856;BME280;5987;53.140;8.904;2023-02-15T08:37:17;102744.41;;;-0.98;100.00
11856;BME280;5987;53.140;8.904;2023-02-15T08:40:22;102751.63;;;-0.89;100.00
11856;BME280;5987;53.140;8.904;2023-02-15T08:43:26;102755.59;;;-0.76;100.00
11856;BME280;5987;53.140;8.904;2023-02-15T08:46:36;102750.13;;;-0.63;100.00
11856;BME280;5987;53.140;8.904;2023-02-15T08:49:40;102745.56;;;-0.70;100.00
11856;BME280;5987;53.140;8.904;2023-02-15T08:52:44;102743.00;;;-0.47;100.00
11856;BME280;5987;53.140;8.904;2023-02-15T08:55:55;102741.97;;;-0.30;100.00
11856;BME280;5987;53.140;8.904;2023-02-15T08:59:00;102745.38;;;-0.31;100.00
11856;BME280;5987;53.140;8.904;2023-02-15T09:02:05;102742.91;;;-0.05;100.00
11856;BME280;5987;53.140;8.904;2023-02-15T09:05:09;102731.88;;;-0.24;100.00
11856;BME280;5987;53.140;8.904;2023-02-15T09:08:13;102725.50;;;-0.11;100.00
11856;BME280;5987;53.140;8.904;2023-02-15T09:11:20;102725.75;;;-0.03;100.00
11856;BME280;5987;53.140;8.904;2023-02-15T09:14:27;102737.38;;;-0.14;100.00
11856;BME280;5987;53.140;8.904;2023-02-15T09:17:30;102724.47;;;-0.14;100.00
11856;BME280;5987;53.140;8.904;2023-02-15T09:20:35;102713.47;;;0.14;100.00
11856;BME280;5987;53.140;8.904;2023-02-15T09:23:40;102706.34;;;0.31;100.00
11856;BME280;5987;53.140;8.904;2023-02-15T09:26:47;102712.44;;;0.33;100.00
11856;BME280;5987;53.140;8.904;2023-02-15T09:29:51;102705.91;;;0.19;100.00
11856;BME280;5987;53.140;8.904;2023-02-15T09:32:56;102707.69;;;0.44;100.00
11856;BME280;5987;53.140;8.904;2023-02-15T09:35:59;102697.97;;;0.62;100.00
11856;BME280;5987;53.140;8.904;2023-02-15T09:39:09;102711.00;;;0.91;100.00
11856;BME280;5987;53.140;8.904;2023-02-15T09:42:43;102712.50;;;1.10;100.00
11856;BME280;5987;53.140;8.904;2023-02-15T09:46:10;102703.69;;;1.31;100.00
11856;BME280;5987;53.140;8.904;2023-02-15T09:49:25;102710.25;;;1.48;100.00
11856;BME280;5987;53.140;8.904;2023-02-15T09:52:59;102698.38;;;1.55;100.00
11856;BME280;5987;53.140;8.904;2023-02-15T09:56:19;102704.63;;;1.91;100.00
11856;BME280;5987;53.140;8.904;2023-02-15T09:59:39;102699.06;;;1.78;100.00
11856;BME280;5987;53.140;8.904;2023-02-15T10:03:08;102689.91;;;1.89;100.00
11856;BME280;5987;53.140;8.904;2023-02-15T10:06:32;102692.63;;;2.25;100.00
11856;BME280;5987;53.140;8.904;2023-02-15T10:10:06;102696.91;;;2.22;100.00
11856;BME280;5987;53.140;8.904;2023-02-15T10:13:29;102693.44;;;2.55;100.00
11856;BME280;5987;53.140;8.904;2023-02-15T10:16:51;102696.53;;;2.74;100.00
11856;BME280;5987;53.140;8.904;2023-02-15T10:20:13;102700.53;;;2.96;100.00
11856;BME280;5987;53.140;8.904;2023-02-15T10:23:41;102690.50;;;3.10;100.00
11856;BME280;5987;53.140;8.904;2023-02-15T10:26:50;102685.97;;;3.38;100.00
11856;BME280;5987;53.140;8.904;2023-02-15T10:30:08;102682.56;;;3.40;100.00
11856;BME280;5987;53.140;8.904;2023-02-15T10:33:34;102673.81;;;3.76;100.00
11856;BME280;5987;53.140;8.904;2023-02-15T10:37:09;102668.13;;;3.94;100.00
11856;BME280;5987;53.140;8.904;2023-02-15T10:40:32;102668.38;;;4.07;100.00
11856;BME280;5987;53.140;8.904;2023-02-15T10:44:11;102675.38;;;4.09;100.00
11856;BME280;5987;53.140;8.904;2023-02-15T10:47:42;102675.56;;;4.20;100.00
11856;BME280;5987;53.140;8.904;2023-02-15T10:50:55;102665.63;;;4.45;100.00
11856;BME280;5987;53.140;8.904;2023-02-15T10:54:16;102652.88;;;4.59;100.00
11856;BME280;5987;53.140;8.904;2023-02-15T10:57:36;102651.28;;;4.66;100.00
11856;BME280;5987;53.140;8.904;2023-02-15T11:00:47;102649.50;;;4.63;100.00
11856;BME280;5987;53.140;8.904;2023-02-15T11:04:39;102661.28;;;4.94;100.00
11856;BME280;5987;53.140;8.904;2023-02-15T11:07:50;102651.91;;;5.06;100.00
11856;BME280;5987;53.140;8.904;2023-02-15T11:11:02;102650.00;;;4.94;100.00
11856;BME280;5987;53.140;8.904;2023-02-15T11:14:15;102644.22;;;5.12;100.00
11856;BME280;5987;53.140;8.904;2023-02-15T11:17:28;102650.63;;;5.37;100.00
11856;BME280;5987;53.140;8.904;2023-02-15T11:20:42;102636.19;;;5.62;100.00
11856;BME280;5987;53.140;8.904;2023-02-15T11:23:52;102629.31;;;5.67;100.00
11856;BME280;5987;53.140;8.904;2023-02-15T11:27:02;102620.69;;;5.70;100.00
11856;BME280;5987;53.140;8.904;2023-02-15T11:30:13;102610.31;;;5.78;100.00
11856;BME280;5987;53.140;8.904;2023-02-15T11:33:22;102615.69;;;5.90;100.00
11856;BME280;5987;53.140;8.904;2023-02-15T11:36:32;102603.78;;;6.09;100.00
11856;BME280;5987;53.140;8.904;2023-02-15T11:39:38;102602.22;;;6.31;100.00
11856;BME280;5987;53.140;8.904;2023-02-15T11:42:42;102593.78;;;6.57;100.00
11856;BME280;5987;53.140;8.904;2023-02-15T11:45:47;102584.22;;;6.59;100.00
11856;BME280;5987;53.140;8.904;2023-02-15T11:48:51;102585.13;;;6.61;100.00
11856;BME280;5987;53.140;8.904;2023-02-15T11:51:57;102581.59;;;6.58;100.00
11856;BME280;5987;53.140;8.904;2023-02-15T11:55:11;102581.72;;;6.75;100.00
11856;BME280;5987;53.140;8.904;2023-02-15T11:58:28;102575.63;;;6.73;100.00
11856;BME280;5987;53.140;8.904;2023-02-15T12:01:38;102568.00;;;7.00;100.00
11856;BME280;5987;53.140;8.904;2023-02-15T12:04:51;102562.81;;;7.11;100.00
11856;BME280;5987;53.140;8.904;2023-02-15T12:08:02;102561.03;;;7.04;100.00
11856;BME280;5987;53.140;8.904;2023-02-15T12:11:17;102553.19;;;7.06;100.00
11856;BME280;5987;53.140;8.904;2023-02-15T12:14:24;102550.59;;;7.06;100.00
11856;BME280;5987;53.140;8.904;2023-02-15T12:17:31;102555.81;;;7.02;100.00
11856;BME280;5987;53.140;8.904;2023-02-15T12:20:37;102543.69;;;7.17;100.00
11856;BME280;5987;53.140;8.904;2023-02-15T12:23:47;102541.94;;;7.14;100.00
11856;BME280;5987;53.140;8.904;2023-02-15T12:27:03;102541.06;;;7.20;100.00
11856;BME280;5987;53.140;8.904;2023-02-15T12:30:19;102532.44;;;7.27;100.00
11856;BME280;5987;53.140;8.904;2023-02-15T12:33:30;102528.22;;;7.74;100.00
11856;BME280;5987;53.140;8.904;2023-02-15T12:36:44;102520.34;;;7.57;100.00
11856;BME280;5987;53.140;8.904;2023-02-15T12:39:55;102519.47;;;7.58;100.00
11856;BME280;5987;53.140;8.904;2023-02-15T12:43:01;102515.09;;;7.52;100.00
11856;BME280;5987;53.140;8.904;2023-02-15T12:46:21;102516.00;;;7.65;100.00
11856;BME280;5987;53.140;8.904;2023-02-15T12:49:26;102509.91;;;7.69;100.00
11856;BME280;5987;53.140;8.904;2023-02-15T12:52:31;102503.84;;;7.94;100.00
11856;BME280;5987;53.140;8.904;2023-02-15T12:55:35;102506.44;;;7.81;100.00
11856;BME280;5987;53.140;8.904;2023-02-15T12:58:47;102510.81;;;7.81;100.00
11856;BME280;5987;53.140;8.904;2023-02-15T13:01:52;102505.59;;;8.01;100.00
11856;BME280;5987;53.140;8.904;2023-02-15T13:05:05;102504.72;;;8.39;100.00
11856;BME280;5987;53.140;8.904;2023-02-15T13:08:20;102498.59;;;8.35;100.00
11856;BME280;5987;53.140;8.904;2023-02-15T13:11:29;102501.25;;;8.07;100.00
11856;BME280;5987;53.140;8.904;2023-02-15T13:14:43;102499.47;;;8.14;100.00
11856;BME280;5987;53.140;8.904;2023-02-15T13:17:48;102488.16;;;8.29;100.00
11856;BME280;5987;53.140;8.904;2023-02-15T13:20:52;102490.78;;;8.20;100.00
11856;BME280;5987;53.140;8.904;2023-02-15T13:24:04;102485.53;;;8.18;100.00
11856;BME280;5987;53.140;8.904;2023-02-15T13:27:15;102482.94;;;8.15;100.00
11856;BME280;5987;53.140;8.904;2023-02-15T13:30:28;102489.03;;;8.51;100.00
11856;BME280;5987;53.140;8.904;2023-02-15T13:33:36;102484.69;;;8.30;100.00
11856;BME280;5987;53.140;8.904;2023-02-15T13:36:50;102474.19;;;8.33;100.00
11856;BME280;5987;53.140;8.904;2023-02-15T13:40:02;102473.34;;;8.45;100.00
11856;BME280;5987;53.140;8.904;2023-02-15T13:43:29;102470.75;;;8.16;100.00
11856;BME280;5987;53.140;8.904;2023-02-15T13:46:52;102471.59;;;8.18;100.00
11856;BME280;5987;53.140;8.904;2023-02-15T13:50:20;102459.38;;;8.18;100.00
11856;BME280;5987;53.140;8.904;2023-02-15T13:54:00;102462.88;;;8.11;100.00
11856;BME280;5987;53.140;8.904;2023-02-15T13:57:32;102455.00;;;8.30;100.00
11856;BME280;5987;53.140;8.904;2023-02-15T14:00:47;102448.91;;;8.29;100.00
11856;BME280;5987;53.140;8.904;2023-02-15T14:04:15;102439.31;;;8.45;100.00
11856;BME280;5987;53.140;8.904;2023-02-15T14:07:41;102440.16;;;8.53;100.00
11856;BME280;5987;53.140;8.904;2023-02-15T14:10:58;102439.25;;;8.61;100.00
11856;BME280;5987;53.140;8.904;2023-02-15T14:14:30;102440.13;;;8.75;100.00
11856;BME280;5987;53.140;8.904;2023-02-15T14:17:58;102433.94;;;8.90;100.00
11856;BME280;5987;53.140;8.904;2023-02-15T14:21:12;102431.38;;;8.74;100.00
11856;BME280;5987;53.140;8.904;2023-02-15T14:24:35;102429.56;;;8.93;100.00
11856;BME280;5987;53.140;8.904;2023-02-15T14:27:54;102431.41;;;8.70;100.00
11856;BME280;5987;53.140;8.904;2023-02-15T14:31:02;102431.44;;;8.53;100.00
11856;BME280;5987;53.140;8.904;2023-02-15T14:34:20;102434.00;;;8.71;100.00
11856;BME280;5987;53.140;8.904;2023-02-15T14:37:41;102427.03;;;8.66;100.00
11856;BME280;5987;53.140;8.904;2023-02-15T14:40:54;102429.66;;;8.73;100.00
11856;BME280;5987;53.140;8.904;2023-02-15T14:44:15;102432.31;;;8.52;100.00
11856;BME280;5987;53.140;8.904;2023-02-15T14:47:27;102424.47;;;8.43;100.00
11856;BME280;5987;53.140;8.904;2023-02-15T14:50:45;102415.66;;;8.76;100.00
11856;BME280;5987;53.140;8.904;2023-02-15T14:53:51;102412.22;;;8.58;100.00
11856;BME280;5987;53.140;8.904;2023-02-15T14:57:29;102421.84;;;8.52;100.00
11856;BME280;5987;53.140;8.904;2023-02-15T15:00:39;102420.13;;;8.23;100.00
11856;BME280;5987;53.140;8.904;2023-02-15T15:03:54;102433.22;;;8.21;100.00
11856;BME280;5987;53.140;8.904;2023-02-15T15:07:08;102424.47;;;8.52;100.00
11856;BME280;5987;53.140;8.904;2023-02-15T15:10:45;102433.19;;;8.29;100.00
11856;BME280;5987;53.140;8.904;2023-02-15T15:13:55;102434.09;;;8.06;100.00
11856;BME280;5987;53.140;8.904;2023-02-15T15:17:01;102435.84;;;8.20;100.00
11856;BME280;5987;53.140;8.904;2023-02-15T15:20:12;102410.53;;;8.27;100.00
11856;BME280;5987;53.140;8.904;2023-02-15T15:23:44;102417.50;;;8.24;100.00
11856;BME280;5987;53.140;8.904;2023-02-15T15:27:38;102410.56;;;8.08;100.00
11856;BME280;5987;53.140;8.904;2023-02-15T15:31:03;102407.06;;;8.09;100.00
11856;BME280;5987;53.140;8.904;2023-02-15T15:34:55;102396.63;;;7.95;100.00
11856;BME280;5987;53.140;8.904;2023-02-15T15:38:35;102387.91;;;7.85;100.00
11856;BME280;5987;53.140;8.904;2023-02-15T15:41:53;102385.28;;;7.78;100.00
11856;BME280;5987;53.140;8.904;2023-02-15T15:45:37;102375.69;;;7.69;100.00
11856;BME280;5987;53.140;8.904;2023-02-15T15:48:46;102370.47;;;7.70;100.00
11856;BME280;5987;53.140;8.904;2023-02-15T15:51:51;102368.75;;;7.54;100.00
11856;BME280;5987;53.140;8.904;2023-02-15T15:55:02;102372.19;;;7.62;100.00
11856;BME280;5987;53.140;8.904;2023-02-15T15:58:08;102372.22;;;7.51;100.00
11856;BME280;5987;53.140;8.904;2023-02-15T16:01:13;102374.81;;;7.53;100.00
11856;BME280;5987;53.140;8.904;2023-02-15T16:04:25;102378.25;;;7.21;100.00
11856;BME280;5987;53.140;8.904;2023-02-15T16:07:29;102385.22;;;7.19;100.00
11856;BME280;5987;53.140;8.904;2023-02-15T16:10:34;102377.31;;;6.90;100.00
11856;BME280;5987;53.140;8.904;2023-02-15T16:13:42;102374.75;;;7.07;100.00
11856;BME280;5987;53.140;8.904;2023-02-15T16:16:51;102363.34;;;6.81;100.00
11856;BME280;5987;53.140;8.904;2023-02-15T16:20:02;102359.03;;;6.85;100.00
11856;BME280;5987;53.140;8.904;2023-02-15T16:23:42;102359.81;;;6.64;100.00
11856;BME280;5987;53.140;8.904;2023-02-15T16:27:19;102352.84;;;6.58;100.00
11856;BME280;5987;53.140;8.904;2023-02-15T16:30:31;102358.78;;;6.35;100.00
11856;BME280;5987;53.140;8.904;2023-02-15T16:33:37;102359.66;;;6.33;100.00
11856;BME280;5987;53.140;8.904;2023-02-15T16:36:41;102355.31;;;6.30;100.00
11856;BME280;5987;53.140;8.904;2023-02-15T16:39:46;102360.44;;;6.18;100.00
11856;BME280;5987;53.140;8.904;2023-02-15T16:42:51;102354.31;;;6.14;100.00
11856;BME280;5987;53.140;8.904;2023-02-15T16:46:05;102359.63;;;6.27;100.00
11856;BME280;5987;53.140;8.904;2023-02-15T16:49:17;102370.75;;;5.99;100.00
11856;BME280;5987;53.140;8.904;2023-02-15T16:52:24;102381.03;;;5.84;100.00
11856;BME280;5987;53.140;8.904;2023-02-15T16:55:37;102381.75;;;5.66;100.00
11856;BME280;5987;53.140;8.904;2023-02-15T16:58:44;102380.91;;;5.69;100.00
11856;BME280;5987;53.140;8.904;2023-02-15T17:01:51;102374.84;;;5.70;100.00
11856;BME280;5987;53.140;8.904;2023-02-15T17:05:15;102372.25;;;5.70;100.00
11856;BME280;5987;53.140;8.904;2023-02-15T17:08:27;102377.25;;;5.51;100.00
11856;BME280;5987;53.140;8.904;2023-02-15T17:11:39;102378.03;;;5.41;100.00
11856;BME280;5987;53.140;8.904;2023-02-15T17:14:43;102382.31;;;5.36;100.00